Time;durP1;ratioP1;P1;durP2;ratioP2;P2;SDS_P1;SDS_P2;PMS_P1;PMS_P2;Temp;Humidity;BMP_temperature;BMP_pressure;BME280_temperature;BME280_humidity;BME280_pressure;Samples;Min_cycle;Max_cycle;Signal;HPM_P1;HPM_P2
2023/12/06 00:00:31;;;;;;;12.98;5.72;;;0.40;99.90;;;;;;5013042;28;20096;-75
2023/12/06 00:02:56;;;;;;;12.75;4.97;;;0.40;99.90;;;;;;5006902;28;20091;-76
2023/12/06 00:05:22;;;;;;;13.65;5.93;;;0.50;99.90;;;;;;5010171;28;20022;-76
2023/12/06 00:07:47;;;;;;;10.45;5.38;;;0.40;99.90;;;;;;5011277;28;20040;-76
2023/12/06 00:10:13;;;;;;;13.70;5.18;;;0.40;99.90;;;;;;5009912;28;20096;-76
2023/12/06 00:12:38;;;;;;;14.98;6.22;;;0.40;99.90;;;;;;5010865;28;20022;-77
2023/12/06 00:15:04;;;;;;;13.27;5.40;;;0.40;99.90;;;;;;5007385;28;20030;-77
2023/12/06 00:17:30;;;;;;;13.35;5.28;;;0.50;99.90;;;;;;5026015;28;20475;-75
2023/12/06 00:19:55;;;;;;;13.93;5.80;;;0.40;99.90;;;;;;5008720;28;20045;-76
2023/12/06 00:22:21;;;;;;;11.40;5.40;;;0.40;99.90;;;;;;5012512;28;20045;-77
2023/12/06 00:24:46;;;;;;;11.77;5.97;;;0.40;99.90;;;;;;5011240;28;20073;-76
2023/12/06 00:27:12;;;;;;;12.32;5.75;;;0.40;99.90;;;;;;5008392;28;20073;-77
2023/12/06 00:29:37;;;;;;;13.43;4.78;;;0.40;99.90;;;;;;5006827;28;20038;-77
2023/12/06 00:32:03;;;;;;;15.32;5.88;;;0.40;99.90;;;;;;5006164;28;20331;-77
2023/12/06 00:34:28;;;;;;;12.50;6.00;;;0.40;99.90;;;;;;5005739;28;20096;-76
2023/12/06 00:36:54;;;;;;;11.85;5.75;;;0.50;99.90;;;;;;5008347;28;20066;-76
2023/12/06 00:39:19;;;;;;;13.40;5.45;;;0.40;99.90;;;;;;5007574;28;20475;-77
2023/12/06 00:41:45;;;;;;;14.35;6.22;;;0.50;99.90;;;;;;5010757;28;20044;-76
2023/12/06 00:44:10;;;;;;;10.38;4.97;;;0.50;99.90;;;;;;5010536;28;20068;-76
2023/12/06 00:46:36;;;;;;;11.77;5.22;;;0.50;99.90;;;;;;5008726;28;20431;-76
2023/12/06 00:49:03;;;;;;;11.13;4.72;;;0.50;99.90;;;;;;5005080;28;20038;-77
2023/12/06 00:51:28;;;;;;;10.13;4.60;;;0.40;99.90;;;;;;5010251;28;20042;-76
2023/12/06 00:53:54;;;;;;;12.63;5.47;;;0.50;99.90;;;;;;5008500;28;20113;-76
2023/12/06 00:56:19;;;;;;;12.90;5.43;;;0.50;99.90;;;;;;5011267;28;20058;-77
2023/12/06 00:58:45;;;;;;;12.55;5.25;;;0.50;99.90;;;;;;5008300;28;20485;-76
2023/12/06 01:01:11;;;;;;;9.80;5.55;;;0.50;99.90;;;;;;5002836;28;20045;-76
2023/12/06 01:03:37;;;;;;;11.15;5.22;;;0.40;99.90;;;;;;5005815;28;20061;-77
2023/12/06 01:06:03;;;;;;;13.32;5.95;;;0.50;99.90;;;;;;5008322;28;20390;-76
2023/12/06 01:08:29;;;;;;;11.10;5.78;;;0.50;99.90;;;;;;5010101;28;20358;-75
2023/12/06 01:10:54;;;;;;;9.77;5.22;;;0.40;99.90;;;;;;5006856;28;20038;-75
2023/12/06 01:13:20;;;;;;;11.93;5.53;;;0.50;99.90;;;;;;5008847;28;20108;-76
2023/12/06 01:15:45;;;;;;;12.20;5.50;;;0.50;99.90;;;;;;5007165;28;20025;-76
2023/12/06 01:18:11;;;;;;;12.18;5.70;;;0.50;99.90;;;;;;5004168;28;20536;-77
2023/12/06 01:20:39;;;;;;;14.27;5.70;;;0.50;99.90;;;;;;5007379;28;20038;-76
2023/12/06 01:23:05;;;;;;;12.00;4.57;;;0.50;99.90;;;;;;5007442;28;20556;-75
2023/12/06 01:25:33;;;;;;;10.05;4.50;;;0.50;99.90;;;;;;5013367;28;20467;-76
2023/12/06 01:27:58;;;;;;;12.90;5.28;;;0.40;99.90;;;;;;5008522;28;20026;-75
2023/12/06 01:30:24;;;;;;;14.10;5.07;;;0.50;99.90;;;;;;5008038;28;20520;-75
2023/12/06 01:32:49;;;;;;;14.65;6.25;;;0.50;99.90;;;;;;5009110;28;20034;-75
2023/12/06 01:35:15;;;;;;;9.20;3.97;;;0.50;99.90;;;;;;5007687;28;20030;-76
2023/12/06 01:37:40;;;;;;;12.07;5.40;;;0.50;99.90;;;;;;5007435;28;20026;-76
2023/12/06 01:40:06;;;;;;;12.40;5.07;;;0.50;99.90;;;;;;5006169;28;20544;-76
2023/12/06 01:42:32;;;;;;;11.43;4.97;;;0.50;99.90;;;;;;5009698;28;20037;-76
2023/12/06 01:44:57;;;;;;;11.75;5.97;;;0.50;99.90;;;;;;5006575;28;20022;-76
2023/12/06 01:47:26;;;;;;;11.93;5.25;;;0.50;99.90;;;;;;5006990;28;20038;-75
2023/12/06 01:49:53;;;;;;;12.20;4.63;;;0.50;99.90;;;;;;5006586;28;20059;-76
2023/12/06 01:52:18;;;;;;;12.32;6.00;;;0.50;99.90;;;;;;5008705;28;20030;-76
2023/12/06 01:54:44;;;;;;;12.15;5.00;;;0.50;99.90;;;;;;5009719;28;20435;-76
2023/12/06 01:57:10;;;;;;;12.20;6.10;;;0.50;99.90;;;;;;5007498;28;20086;-76
2023/12/06 01:59:37;;;;;;;11.88;6.22;;;0.50;99.90;;;;;;5007630;28;20462;-76
2023/12/06 02:02:04;;;;;;;14.35;6.60;;;0.50;99.90;;;;;;5008451;28;20469;-76
2023/12/06 02:04:29;;;;;;;14.35;6.70;;;0.50;99.90;;;;;;5005427;28;20045;-76
2023/12/06 02:06:55;;;;;;;11.63;5.47;;;0.50;99.90;;;;;;5008211;28;20030;-76
2023/12/06 02:09:21;;;;;;;13.18;5.88;;;0.40;99.90;;;;;;5006381;28;20030;-76
2023/12/06 02:11:47;;;;;;;16.50;5.82;;;0.40;99.90;;;;;;5007006;28;20030;-76
2023/12/06 02:14:13;;;;;;;17.95;6.78;;;0.50;99.90;;;;;;5005794;28;20026;-76
2023/12/06 02:16:39;;;;;;;13.40;5.80;;;0.40;99.90;;;;;;5006926;28;20026;-76
2023/12/06 02:19:07;;;;;;;12.10;5.13;;;0.50;99.90;;;;;;5007440;28;20044;-76
2023/12/06 02:21:32;;;;;;;14.75;6.70;;;0.50;99.90;;;;;;5007483;28;20034;-76
2023/12/06 02:23:59;;;;;;;16.20;7.10;;;0.40;99.90;;;;;;5011427;28;20049;-76
2023/12/06 02:26:24;;;;;;;16.13;6.47;;;0.50;99.90;;;;;;5008584;28;20037;-76
2023/12/06 02:28:56;;;;;;;17.48;6.95;;;0.40;99.90;;;;;;5004166;28;20049;-76
2023/12/06 02:31:21;;;;;;;20.73;6.80;;;0.50;99.90;;;;;;5003397;28;20125;-76
2023/12/06 02:33:49;;;;;;;15.93;6.53;;;0.40;99.90;;;;;;5001889;28;20180;-76
2023/12/06 02:36:17;;;;;;;17.35;6.25;;;0.40;99.90;;;;;;5004649;28;20057;-76
2023/12/06 02:38:44;;;;;;;17.05;5.72;;;0.40;99.90;;;;;;5008292;28;20041;-76
2023/12/06 02:41:12;;;;;;;17.42;7.40;;;0.50;99.90;;;;;;5005669;28;20110;-76
2023/12/06 02:43:38;;;;;;;15.65;7.28;;;0.40;99.90;;;;;;5010369;28;20693;-76
2023/12/06 02:46:04;;;;;;;14.90;6.85;;;0.50;99.90;;;;;;5007000;28;20022;-76
2023/12/06 02:48:30;;;;;;;14.35;6.35;;;0.50;99.90;;;;;;5006134;28;20123;-76
2023/12/06 02:50:55;;;;;;;19.65;7.57;;;0.50;99.90;;;;;;5007490;28;20589;-76
2023/12/06 02:53:20;;;;;;;13.65;5.28;;;0.50;99.90;;;;;;5012556;28;20026;-76
2023/12/06 02:55:46;;;;;;;17.55;6.25;;;0.50;99.90;;;;;;5011525;28;20034;-76
2023/12/06 02:58:11;;;;;;;15.30;7.32;;;0.50;99.90;;;;;;5013432;28;20386;-76
2023/12/06 03:00:37;;;;;;;13.60;7.10;;;0.50;99.90;;;;;;5007761;28;20115;-76
2023/12/06 03:03:02;;;;;;;17.40;6.97;;;0.50;99.90;;;;;;5007474;28;20033;-76
2023/12/06 03:05:28;;;;;;;16.05;6.25;;;0.50;99.90;;;;;;5010603;28;20041;-76
2023/12/06 03:07:53;;;;;;;14.18;6.38;;;0.50;99.90;;;;;;5014619;28;20049;-76
2023/12/06 03:10:19;;;;;;;13.48;5.22;;;0.50;99.90;;;;;;5010277;28;20050;-76
2023/12/06 03:12:44;;;;;;;18.08;7.35;;;0.50;99.90;;;;;;5012421;28;20092;-76
2023/12/06 03:15:10;;;;;;;13.43;5.82;;;0.50;99.90;;;;;;5013832;28;20044;-76
2023/12/06 03:17:35;;;;;;;17.33;6.47;;;0.50;99.90;;;;;;5010333;28;20025;-76
2023/12/06 03:20:01;;;;;;;17.27;7.07;;;0.50;99.90;;;;;;5008960;28;20939;-76
2023/12/06 03:22:26;;;;;;;15.52;6.88;;;0.50;99.90;;;;;;5009990;28;20046;-76
2023/12/06 03:24:52;;;;;;;13.48;6.07;;;0.50;99.90;;;;;;5008370;28;20845;-76
2023/12/06 03:27:17;;;;;;;13.10;6.07;;;0.50;99.90;;;;;;5011297;28;20037;-76
2023/12/06 03:29:43;;;;;;;18.75;7.47;;;0.50;99.90;;;;;;5010552;28;20120;-76
2023/12/06 03:32:08;;;;;;;20.55;7.72;;;0.50;99.90;;;;;;5010497;28;20467;-76
2023/12/06 03:34:33;;;;;;;17.55;7.13;;;0.50;99.90;;;;;;5009016;28;20065;-76
2023/12/06 03:36:59;;;;;;;19.88;6.60;;;0.50;99.90;;;;;;5010239;28;20037;-76
2023/12/06 03:39:26;;;;;;;18.25;6.03;;;0.50;99.90;;;;;;5013598;28;20030;-76
2023/12/06 03:41:51;;;;;;;16.75;6.50;;;0.50;99.90;;;;;;5011905;28;20026;-76
2023/12/06 03:44:16;;;;;;;19.00;8.13;;;0.50;99.90;;;;;;5010619;28;20034;-76
2023/12/06 03:46:42;;;;;;;19.48;7.05;;;0.50;99.90;;;;;;5010432;28;20076;-76
2023/12/06 03:49:08;;;;;;;14.88;6.22;;;0.50;99.90;;;;;;5008953;28;20021;-76
2023/12/06 03:51:34;;;;;;;18.73;6.55;;;0.50;99.90;;;;;;5010613;28;20399;-76
2023/12/06 03:53:59;;;;;;;18.33;6.20;;;0.50;99.90;;;;;;5011905;28;20034;-76
2023/12/06 03:56:25;;;;;;;17.30;7.25;;;0.50;99.90;;;;;;5012651;28;20068;-76
2023/12/06 03:58:51;;;;;;;14.88;6.47;;;0.50;99.90;;;;;;5011905;28;20117;-76
2023/12/06 04:01:16;;;;;;;19.05;6.15;;;0.50;99.90;;;;;;5007245;28;20029;-77
2023/12/06 04:03:42;;;;;;;14.73;6.10;;;0.50;99.90;;;;;;5008393;28;20308;-77
2023/12/06 04:06:07;;;;;;;14.20;6.55;;;0.50;99.90;;;;;;5011367;28;20041;-77
2023/12/06 04:08:33;;;;;;;14.25;6.45;;;0.60;99.90;;;;;;5009860;28;20467;-77
2023/12/06 04:10:58;;;;;;;17.23;6.45;;;0.50;99.90;;;;;;5010243;28;20363;-77
2023/12/06 04:13:24;;;;;;;22.95;7.32;;;0.50;99.90;;;;;;5010894;28;20033;-77
2023/12/06 04:15:49;;;;;;;20.40;7.85;;;0.50;99.90;;;;;;5010109;28;20030;-76
2023/12/06 04:18:15;;;;;;;16.35;6.25;;;0.50;99.90;;;;;;5007074;28;20388;-76
2023/12/06 04:20:40;;;;;;;14.65;6.97;;;0.50;99.90;;;;;;5006647;28;20026;-77
2023/12/06 04:23:05;;;;;;;15.95;7.38;;;0.50;99.90;;;;;;5010362;28;20034;-77
2023/12/06 04:25:31;;;;;;;18.85;6.85;;;0.50;99.90;;;;;;5010372;28;20044;-77
2023/12/06 04:27:56;;;;;;;17.02;7.25;;;0.50;99.90;;;;;;5006448;28;20040;-77
2023/12/06 04:30:22;;;;;;;16.60;6.78;;;0.50;99.90;;;;;;5011586;28;20103;-77
2023/12/06 04:32:47;;;;;;;17.73;7.57;;;0.50;99.90;;;;;;5004370;28;20041;-77
2023/12/06 04:35:13;;;;;;;17.98;6.95;;;0.50;99.90;;;;;;5008890;28;20144;-77
2023/12/06 04:37:40;;;;;;;16.10;6.40;;;0.50;99.90;;;;;;5007952;28;20037;-77
2023/12/06 04:40:06;;;;;;;17.92;6.60;;;0.60;99.90;;;;;;5018461;28;20561;-77
2023/12/06 04:42:32;;;;;;;15.32;6.05;;;0.60;99.90;;;;;;5007532;28;20030;-77
2023/12/06 04:44:57;;;;;;;16.77;7.05;;;0.60;99.90;;;;;;5003056;28;20030;-77
2023/12/06 04:47:23;;;;;;;19.02;7.05;;;0.50;99.90;;;;;;5003925;28;20385;-77
2023/12/06 04:49:48;;;;;;;19.02;6.40;;;0.50;99.90;;;;;;5006248;28;20625;-77
2023/12/06 04:52:14;;;;;;;20.25;7.60;;;0.50;99.90;;;;;;5012130;28;20041;-77
2023/12/06 04:54:39;;;;;;;18.83;7.03;;;0.50;99.90;;;;;;5010203;28;20045;-77
2023/12/06 04:57:05;;;;;;;16.05;7.00;;;0.50;99.90;;;;;;5003604;28;20411;-77
2023/12/06 04:59:30;;;;;;;16.63;6.70;;;0.60;99.90;;;;;;5005397;28;20033;-77
2023/12/06 05:01:56;;;;;;;17.90;7.38;;;0.60;99.90;;;;;;5008103;28;20056;-77
2023/12/06 05:04:22;;;;;;;19.25;6.72;;;0.50;99.90;;;;;;5005533;28;20128;-77
2023/12/06 05:06:49;;;;;;;19.45;6.80;;;0.50;99.90;;;;;;5004700;28;20022;-77
2023/12/06 05:09:14;;;;;;;16.50;6.78;;;0.50;99.90;;;;;;5003478;28;20033;-77
2023/12/06 05:11:39;;;;;;;22.13;7.68;;;0.60;99.90;;;;;;5004913;28;20034;-78
2023/12/06 05:14:05;;;;;;;20.60;7.32;;;0.50;99.90;;;;;;5003255;28;20482;-77
2023/12/06 05:16:30;;;;;;;16.55;6.65;;;0.60;99.90;;;;;;5007361;28;20034;-77
2023/12/06 05:18:56;;;;;;;16.50;6.72;;;0.50;99.90;;;;;;5000169;28;20047;-77
2023/12/06 05:21:21;;;;;;;24.67;7.35;;;0.50;99.90;;;;;;5002315;28;20498;-77
2023/12/06 05:23:48;;;;;;;17.45;6.57;;;0.50;99.90;;;;;;5002334;28;20080;-77
2023/12/06 05:26:14;;;;;;;19.58;6.50;;;0.50;99.90;;;;;;5005168;28;20022;-70
2023/12/06 05:28:39;;;;;;;16.45;6.35;;;0.60;99.90;;;;;;5003552;28;20372;-70
2023/12/06 05:31:05;;;;;;;15.98;7.00;;;0.50;99.90;;;;;;5006071;28;20048;-71
2023/12/06 05:33:30;;;;;;;22.52;7.07;;;0.50;99.90;;;;;;4998946;28;20036;-72
2023/12/06 05:35:55;;;;;;;21.80;7.30;;;0.50;99.90;;;;;;5000024;28;20459;-72
2023/12/06 05:38:22;;;;;;;21.65;7.18;;;0.50;99.90;;;;;;5001705;28;20116;-71
2023/12/06 05:40:48;;;;;;;16.55;7.07;;;0.60;99.90;;;;;;5000755;28;20451;-72
2023/12/06 05:43:13;;;;;;;20.90;6.70;;;0.60;99.90;;;;;;4998606;28;20021;-71
2023/12/06 05:45:39;;;;;;;20.38;7.57;;;0.60;99.90;;;;;;5003378;28;20124;-71
2023/12/06 05:48:04;;;;;;;16.15;7.03;;;0.60;99.90;;;;;;5001946;28;20033;-72
2023/12/06 05:50:30;;;;;;;25.08;7.18;;;0.60;99.90;;;;;;5003084;28;20046;-71
2023/12/06 05:52:57;;;;;;;19.63;6.38;;;0.50;99.90;;;;;;5000509;28;20034;-71
2023/12/06 05:55:23;;;;;;;18.92;6.30;;;0.60;99.90;;;;;;5001840;28;20041;-71
2023/12/06 05:57:48;;;;;;;23.63;7.45;;;0.60;99.90;;;;;;5005039;28;20026;-72
2023/12/06 06:00:14;;;;;;;19.98;7.43;;;0.50;99.90;;;;;;4998993;28;20046;-70
2023/12/06 06:02:43;;;;;;;21.63;7.97;;;0.50;99.90;;;;;;5005204;28;20581;-70
2023/12/06 06:05:09;;;;;;;20.83;7.38;;;0.50;99.90;;;;;;5009449;28;20049;-70
2023/12/06 06:07:34;;;;;;;18.02;7.53;;;0.50;99.90;;;;;;5007013;28;20030;-70
2023/12/06 06:10:00;;;;;;;16.50;7.20;;;0.50;99.90;;;;;;5005885;28;20388;-70
2023/12/06 06:12:25;;;;;;;23.77;7.93;;;0.60;99.90;;;;;;5008862;28;20063;-70
2023/12/06 06:14:51;;;;;;;20.17;6.60;;;0.60;99.90;;;;;;5010674;28;20038;-72
2023/12/06 06:17:16;;;;;;;17.85;8.02;;;0.50;99.90;;;;;;5010839;28;20428;-70
2023/12/06 06:19:42;;;;;;;18.98;6.35;;;0.60;99.90;;;;;;5012073;28;20042;-69
2023/12/06 06:22:07;;;;;;;22.23;7.13;;;0.60;99.90;;;;;;5013204;28;20037;-70
2023/12/06 06:24:34;;;;;;;18.55;6.78;;;0.50;99.90;;;;;;5009456;28;20026;-70
2023/12/06 06:26:59;;;;;;;16.48;6.38;;;0.50;99.90;;;;;;5007426;28;20056;-70
2023/12/06 06:29:25;;;;;;;18.95;6.35;;;0.50;99.90;;;;;;5017245;28;20072;-70
2023/12/06 06:31:50;;;;;;;18.33;7.68;;;0.50;99.90;;;;;;5013044;28;20157;-71
2023/12/06 06:34:16;;;;;;;19.75;6.57;;;0.60;99.90;;;;;;5011390;28;20405;-70
2023/12/06 06:36:41;;;;;;;18.17;6.22;;;0.50;99.90;;;;;;5020042;28;20471;-71
2023/12/06 06:39:07;;;;;;;19.38;6.85;;;0.50;99.90;;;;;;5018117;28;20036;-70
2023/12/06 06:41:32;;;;;;;25.55;7.18;;;0.50;99.90;;;;;;5013052;28;20064;-70
2023/12/06 06:43:58;;;;;;;21.63;8.25;;;0.50;99.90;;;;;;5011657;28;20471;-70
2023/12/06 06:46:23;;;;;;;21.23;7.32;;;0.50;99.90;;;;;;5014408;28;20042;-70
2023/12/06 06:48:49;;;;;;;15.98;5.80;;;0.60;99.90;;;;;;5010252;28;20033;-73
2023/12/06 06:51:14;;;;;;;19.15;7.03;;;0.60;99.90;;;;;;5009179;28;20490;-71
2023/12/06 06:53:40;;;;;;;23.45;7.50;;;0.60;99.90;;;;;;5013733;28;20379;-70
2023/12/06 06:56:05;;;;;;;18.85;6.32;;;0.50;99.90;;;;;;5014048;28;20026;-71
2023/12/06 06:58:31;;;;;;;15.40;6.25;;;0.50;99.90;;;;;;5013453;28;20095;-70
2023/12/06 07:00:56;;;;;;;17.42;6.20;;;0.50;99.90;;;;;;5004657;28;20053;-71
2023/12/06 07:03:22;;;;;;;14.85;6.13;;;0.60;99.90;;;;;;5010884;28;20099;-71
2023/12/06 07:05:48;;;;;;;21.38;6.97;;;0.60;99.90;;;;;;5007380;28;20054;-70
2023/12/06 07:08:13;;;;;;;21.27;6.70;;;0.60;99.90;;;;;;5012993;28;20446;-71
2023/12/06 07:10:39;;;;;;;18.98;6.82;;;0.60;99.90;;;;;;5012606;28;20049;-71
2023/12/06 07:13:05;;;;;;;18.75;6.03;;;0.60;99.90;;;;;;5011756;28;20040;-71
2023/12/06 07:15:30;;;;;;;22.48;7.45;;;0.60;99.90;;;;;;5009865;28;20031;-71
2023/12/06 07:17:56;;;;;;;21.55;6.90;;;0.60;99.90;;;;;;5010342;28;20030;-71
2023/12/06 07:20:24;;;;;;;21.33;7.15;;;0.60;99.90;;;;;;5011649;28;20030;-71
2023/12/06 07:22:50;;;;;;;22.63;7.60;;;0.60;99.90;;;;;;5014213;28;20394;-71
2023/12/06 07:25:15;;;;;;;15.23;5.45;;;0.60;99.90;;;;;;5010224;28;20038;-71
2023/12/06 07:27:44;;;;;;;19.23;6.28;;;0.60;99.90;;;;;;5012819;28;20034;-71
2023/12/06 07:30:15;;;;;;;21.27;7.22;;;0.60;99.90;;;;;;5014636;28;20030;-71
2023/12/06 07:32:40;;;;;;;16.90;6.30;;;0.60;99.90;;;;;;5009447;28;20557;-71
2023/12/06 07:35:06;;;;;;;16.48;5.95;;;0.60;99.90;;;;;;5004423;28;20034;-71
2023/12/06 07:37:31;;;;;;;21.35;6.57;;;0.60;99.90;;;;;;5012569;28;20494;-71
2023/12/06 07:39:57;;;;;;;16.88;6.28;;;0.60;99.90;;;;;;5011208;28;20038;-71
2023/12/06 07:42:23;;;;;;;15.05;6.15;;;0.60;99.90;;;;;;5011730;28;20502;-71
2023/12/06 07:44:48;;;;;;;15.40;5.78;;;0.60;99.90;;;;;;5012845;28;20105;-70
2023/12/06 07:47:15;;;;;;;17.02;6.10;;;0.60;99.90;;;;;;5013229;28;20042;-69
2023/12/06 07:49:41;;;;;;;21.15;6.90;;;0.60;99.90;;;;;;5009898;28;20033;-69
2023/12/06 07:52:07;;;;;;;16.88;6.53;;;0.60;99.90;;;;;;5010321;28;20038;-70
2023/12/06 07:54:33;;;;;;;19.25;6.97;;;0.60;99.90;;;;;;5012607;28;20036;-72
2023/12/06 07:56:58;;;;;;;13.15;5.10;;;0.60;99.90;;;;;;5013061;28;20112;-69
2023/12/06 07:59:24;;;;;;;18.55;5.60;;;0.60;99.90;;;;;;5010414;28;20044;-69
2023/12/06 08:01:49;;;;;;;18.27;5.30;;;0.60;99.90;;;;;;5010442;28;20092;-71
2023/12/06 08:04:15;;;;;;;21.58;6.07;;;0.60;99.90;;;;;;5010060;28;20046;-69
2023/12/06 08:06:41;;;;;;;17.13;5.70;;;0.60;99.90;;;;;;5007845;28;20107;-69
2023/12/06 08:09:12;;;;;;;18.48;6.97;;;0.60;99.90;;;;;;5010875;28;20037;-69
2023/12/06 08:11:41;;;;;;;17.63;6.57;;;0.60;99.90;;;;;;5011971;28;20091;-68
2023/12/06 08:14:07;;;;;;;16.45;5.82;;;0.60;99.90;;;;;;5012484;28;20034;-69
2023/12/06 08:16:33;;;;;;;16.88;6.13;;;0.60;99.90;;;;;;5002591;28;20150;-68
2023/12/06 08:18:58;;;;;;;16.80;6.43;;;0.70;99.90;;;;;;5010123;28;20034;-68
2023/12/06 08:21:24;;;;;;;19.70;5.38;;;0.70;99.90;;;;;;5016108;28;20088;-68
2023/12/06 08:23:49;;;;;;;13.30;5.80;;;0.60;99.90;;;;;;5010956;28;20087;-69
2023/12/06 08:26:15;;;;;;;18.45;7.57;;;0.60;99.90;;;;;;5011786;28;20418;-68
2023/12/06 08:28:40;;;;;;;17.35;6.50;;;0.70;99.90;;;;;;5014901;28;20079;-68
2023/12/06 08:31:08;;;;;;;16.33;5.63;;;0.70;99.90;;;;;;5008985;28;20050;-68
2023/12/06 08:33:34;;;;;;;16.98;6.88;;;0.70;99.90;;;;;;5009988;28;20049;-68
2023/12/06 08:35:59;;;;;;;16.27;6.50;;;0.70;99.90;;;;;;5003455;28;20462;-68
2023/12/06 08:38:25;;;;;;;17.25;6.45;;;0.70;99.90;;;;;;5012119;28;20068;-68
2023/12/06 08:40:50;;;;;;;16.35;5.22;;;0.70;99.90;;;;;;5010731;28;20038;-68
2023/12/06 08:43:16;;;;;;;15.70;6.30;;;0.70;99.90;;;;;;5008846;28;20046;-68
2023/12/06 08:45:41;;;;;;;15.73;5.97;;;0.70;99.90;;;;;;5012887;28;20149;-68
2023/12/06 08:48:08;;;;;;;17.42;6.10;;;0.70;99.90;;;;;;5008729;28;20382;-70
2023/12/06 08:50:34;;;;;;;17.65;5.80;;;0.70;99.90;;;;;;5009306;28;20405;-68
2023/12/06 08:52:59;;;;;;;14.77;6.32;;;0.80;99.90;;;;;;5011560;28;20025;-68
2023/12/06 08:55:25;;;;;;;19.17;7.25;;;0.80;99.90;;;;;;5010439;28;20037;-68
2023/12/06 08:57:51;;;;;;;16.63;6.20;;;0.80;99.90;;;;;;5010973;28;20030;-68
2023/12/06 09:00:17;;;;;;;15.15;5.15;;;0.80;99.90;;;;;;5009526;28;20029;-68
2023/12/06 09:02:43;;;;;;;18.65;5.93;;;0.80;99.90;;;;;;5007430;28;20041;-68
2023/12/06 09:05:11;;;;;;;17.30;5.97;;;0.90;99.90;;;;;;5009252;28;20038;-68
2023/12/06 09:07:40;;;;;;;17.70;6.90;;;0.90;99.90;;;;;;5010715;28;20044;-69
2023/12/06 09:10:08;;;;;;;19.60;6.60;;;0.90;99.90;;;;;;5013838;28;20038;-68
2023/12/06 09:12:34;;;;;;;19.15;6.60;;;0.90;99.90;;;;;;5014016;28;20386;-68
2023/12/06 09:14:59;;;;;;;16.83;6.45;;;0.90;99.90;;;;;;5010210;28;20041;-68
2023/12/06 09:17:25;;;;;;;19.23;6.25;;;1.00;99.90;;;;;;5006871;28;20042;-68
2023/12/06 09:19:51;;;;;;;17.80;5.82;;;1.00;99.90;;;;;;5010527;28;20112;-71
2023/12/06 09:22:17;;;;;;;17.58;5.88;;;1.00;99.90;;;;;;5009958;28;20497;-68
2023/12/06 09:24:43;;;;;;;18.73;6.40;;;1.00;99.90;;;;;;5008484;28;20402;-69
2023/12/06 09:27:09;;;;;;;18.02;6.65;;;1.00;99.90;;;;;;5008325;28;20026;-68
2023/12/06 09:29:35;;;;;;;16.38;5.57;;;1.00;99.90;;;;;;5007982;28;20041;-68
2023/12/06 09:32:00;;;;;;;18.63;6.93;;;1.00;99.90;;;;;;5007930;28;20041;-69
2023/12/06 09:34:26;;;;;;;18.45;6.70;;;1.00;99.90;;;;;;5005848;28;20026;-69
2023/12/06 09:36:51;;;;;;;18.20;5.80;;;1.00;99.90;;;;;;5010824;28;20037;-68
2023/12/06 09:39:20;;;;;;;18.30;5.75;;;1.00;99.90;;;;;;5009030;28;20038;-69
2023/12/06 09:41:46;;;;;;;16.38;6.50;;;1.00;99.90;;;;;;5008996;28;20065;-68
2023/12/06 09:44:11;;;;;;;11.90;4.97;;;1.10;99.90;;;;;;5008354;28;20054;-68
2023/12/06 09:46:37;;;;;;;16.58;6.18;;;1.10;99.90;;;;;;5009487;28;20041;-69
2023/12/06 09:49:02;;;;;;;14.07;6.00;;;1.20;99.90;;;;;;5005866;28;20094;-68
2023/12/06 09:51:28;;;;;;;13.48;4.88;;;1.10;99.90;;;;;;5006641;28;20050;-68
2023/12/06 09:53:53;;;;;;;13.10;4.68;;;1.20;99.90;;;;;;5012227;28;20029;-68
2023/12/06 09:56:19;;;;;;;12.38;4.78;;;1.20;99.90;;;;;;5009900;28;20049;-68
2023/12/06 09:58:45;;;;;;;10.57;4.47;;;1.10;99.90;;;;;;5009316;28;20108;-69
2023/12/06 10:01:11;;;;;;;13.82;4.10;;;1.00;99.90;;;;;;5007920;28;20048;-68
2023/12/06 10:03:38;;;;;;;12.57;4.88;;;1.00;99.90;;;;;;5008737;28;20042;-69
2023/12/06 10:06:03;;;;;;;9.15;4.05;;;1.10;99.90;;;;;;5008653;28;20030;-69
2023/12/06 10:08:32;;;;;;;10.90;4.50;;;1.00;99.90;;;;;;5008850;28;20037;-67
2023/12/06 10:11:06;;;;;;;10.73;4.00;;;1.10;99.90;;;;;;5009335;28;20073;-68
2023/12/06 10:13:38;;;;;;;9.05;3.55;;;1.00;99.90;;;;;;5008417;28;20467;-69
2023/12/06 10:16:14;;;;;;;9.82;4.15;;;1.00;99.90;;;;;;5002300;28;20096;-68
2023/12/06 10:18:40;;;;;;;8.27;3.80;;;1.10;99.90;;;;;;5007204;28;20045;-68
2023/12/06 10:21:06;;;;;;;11.85;3.60;;;1.10;99.90;;;;;;5025121;28;20046;-68
2023/12/06 10:23:32;;;;;;;8.82;3.72;;;1.10;99.90;;;;;;5008761;28;20041;-68
2023/12/06 10:25:58;;;;;;;9.70;2.90;;;1.10;99.90;;;;;;5008045;28;20442;-69
2023/12/06 10:28:23;;;;;;;8.32;4.13;;;1.20;99.90;;;;;;5012250;28;20089;-69
2023/12/06 10:31:03;;;;;;;8.85;3.20;;;1.10;99.90;;;;;;5006127;28;20029;-70
2023/12/06 10:33:30;;;;;;;11.60;4.25;;;1.10;99.90;;;;;;5005971;28;20052;-70
2023/12/06 10:36:00;;;;;;;6.65;3.35;;;1.10;99.90;;;;;;5008806;28;20038;-69
2023/12/06 10:38:28;;;;;;;11.90;4.50;;;1.10;99.90;;;;;;5009805;28;20113;-69
2023/12/06 10:40:55;;;;;;;10.00;4.07;;;1.10;99.90;;;;;;5008233;28;20272;-70
2023/12/06 10:43:22;;;;;;;10.45;3.85;;;1.10;99.90;;;;;;5008919;28;20030;-69
2023/12/06 10:45:50;;;;;;;8.13;3.33;;;1.10;99.90;;;;;;5008317;28;20383;-69
2023/12/06 10:48:17;;;;;;;11.07;3.78;;;1.10;99.90;;;;;;5004642;28;20490;-69
2023/12/06 10:50:43;;;;;;;8.65;3.85;;;1.10;99.90;;;;;;5004815;28;20112;-68
2023/12/06 10:53:13;;;;;;;10.80;3.40;;;1.10;99.90;;;;;;5009701;28;20038;-69
2023/12/06 10:55:41;;;;;;;7.43;3.13;;;1.20;99.90;;;;;;5008135;28;20538;-69
2023/12/06 10:58:08;;;;;;;8.55;3.60;;;1.20;99.90;;;;;;5008505;28;20057;-70
2023/12/06 11:00:34;;;;;;;8.18;3.42;;;1.20;99.90;;;;;;5004789;28;20046;-69
2023/12/06 11:02:59;;;;;;;8.30;3.38;;;1.20;99.90;;;;;;5011866;28;20046;-69
2023/12/06 11:05:28;;;;;;;9.35;3.75;;;1.20;99.90;;;;;;5010737;28;20034;-69
2023/12/06 11:08:14;;;;;;;9.57;3.55;;;1.20;99.90;;;;;;5010427;28;20045;-69
2023/12/06 11:11:02;;;;;;;8.40;3.03;;;1.20;99.90;;;;;;5010863;28;20049;-69
2023/12/06 11:14:03;;;;;;;9.15;3.53;;;1.10;99.90;;;;;;5012747;28;20065;-69
2023/12/06 11:16:43;;;;;;;5.38;2.45;;;1.20;99.90;;;;;;5009287;28;20113;-69
2023/12/06 11:19:12;;;;;;;9.10;3.37;;;1.10;99.90;;;;;;5010267;28;20077;-69
2023/12/06 11:21:38;;;;;;;8.00;2.97;;;1.10;99.90;;;;;;5010056;28;20038;-68
2023/12/06 11:24:08;;;;;;;8.00;3.53;;;1.10;99.90;;;;;;5009932;28;20026;-69
2023/12/06 11:26:33;;;;;;;9.52;3.70;;;1.10;99.90;;;;;;5012268;28;20533;-69
2023/12/06 11:28:59;;;;;;;7.60;3.88;;;1.10;99.90;;;;;;5025259;28;20026;-70
2023/12/06 11:31:35;;;;;;;8.20;3.28;;;1.10;99.90;;;;;;5008665;28;20076;-69
2023/12/06 11:34:04;;;;;;;7.82;3.15;;;1.10;99.90;;;;;;5009946;28;20057;-70
2023/12/06 11:36:29;;;;;;;8.50;3.92;;;1.10;99.90;;;;;;5009278;28;20026;-69
2023/12/06 11:38:55;;;;;;;5.80;2.90;;;1.00;99.90;;;;;;5006574;28;20041;-69
2023/12/06 11:41:21;;;;;;;8.20;3.13;;;1.00;99.90;;;;;;5009579;28;20108;-69
2023/12/06 11:43:49;;;;;;;8.30;3.13;;;1.00;99.90;;;;;;5011248;28;20038;-69
2023/12/06 11:46:16;;;;;;;9.10;3.47;;;0.90;99.90;;;;;;5010207;28;20033;-68
2023/12/06 11:48:44;;;;;;;7.18;3.28;;;1.00;99.90;;;;;;5007247;28;20049;-69
2023/12/06 11:51:24;;;;;;;9.07;3.17;;;0.90;99.90;;;;;;5011838;28;20123;-68
2023/12/06 11:53:51;;;;;;;7.13;3.35;;;0.90;99.90;;;;;;5011670;28;20104;-69
2023/12/06 11:56:24;;;;;;;9.30;3.42;;;0.90;99.90;;;;;;5011983;28;20123;-69
2023/12/06 11:58:50;;;;;;;6.97;3.13;;;0.90;99.90;;;;;;5011006;28;20029;-69
2023/12/06 12:01:17;;;;;;;6.18;2.92;;;0.90;99.90;;;;;;5010772;28;20042;-70
2023/12/06 12:03:45;;;;;;;10.88;4.45;;;0.90;99.90;;;;;;5009206;28;20157;-68
2023/12/06 12:06:11;;;;;;;8.82;3.90;;;0.90;99.90;;;;;;5009018;28;20038;-69
2023/12/06 12:08:36;;;;;;;7.32;3.05;;;0.90;99.90;;;;;;5012020;28;20034;-70
2023/12/06 12:11:02;;;;;;;7.47;3.63;;;0.90;99.90;;;;;;5012457;28;20034;-69
2023/12/06 12:13:28;;;;;;;7.65;3.85;;;0.90;99.90;;;;;;5011085;28;20030;-69
2023/12/06 12:15:57;;;;;;;8.13;3.35;;;0.90;99.90;;;;;;5008963;28;20029;-70
2023/12/06 12:18:26;;;;;;;7.47;3.70;;;0.90;99.90;;;;;;5009307;28;20033;-69
2023/12/06 12:20:52;;;;;;;7.28;3.45;;;0.90;99.90;;;;;;5007559;28;20172;-70
2023/12/06 12:23:17;;;;;;;10.35;3.63;;;0.90;99.90;;;;;;5010933;28;20530;-69
2023/12/06 12:25:47;;;;;;;9.57;3.85;;;0.90;99.90;;;;;;5009288;28;20060;-69
2023/12/06 12:28:19;;;;;;;8.40;3.60;;;0.90;99.90;;;;;;5019481;28;20026;-68
2023/12/06 12:30:53;;;;;;;8.15;2.90;;;0.80;99.90;;;;;;5007395;28;20041;-69
2023/12/06 12:33:19;;;;;;;7.93;3.75;;;0.80;99.90;;;;;;5002975;28;20033;-69
2023/12/06 12:35:45;;;;;;;10.23;3.83;;;0.80;99.90;;;;;;5009784;28;20061;-69
2023/12/06 12:38:11;;;;;;;6.82;3.05;;;0.80;99.90;;;;;;5010344;28;20116;-69
2023/12/06 12:40:38;;;;;;;10.38;4.38;;;0.90;99.90;;;;;;5010488;28;20103;-70
2023/12/06 12:43:04;;;;;;;7.38;3.78;;;0.80;99.90;;;;;;5009149;28;20022;-69